Time;durP1;ratioP1;P1;durP2;ratioP2;P2;SDS_P1;SDS_P2;PMS_P1;PMS_P2;Temp;Humidity;BMP_temperature;BMP_pressure;BME280_temperature;BME280_humidity;BME280_pressure;Samples;Min_cycle;Max_cycle;Signal;HPM_P1;HPM_P2
2022/01/20 00:00:50;;;;;;;0.40;0.40;;;;;;;4.95;92.61;100709.03;4948854;28;20122;-72
2022/01/20 00:03:21;;;;;;;3.97;0.20;;;;;;;4.94;91.65;100709.34;4953497;28;20035;-72
2022/01/20 00:28:08;;;;;;;0.43;0.28;;;;;;;4.97;91.68;100717.53;4952661;28;20489;-72
2022/01/20 00:30:55;;;;;;;0.20;0.20;;;;;;;4.99;91.23;100710.00;4954073;28;21868;-72
2022/01/20 00:33:34;;;;;;;0.10;0.10;;;;;;;5.08;91.15;100700.06;4944097;28;20038;-72
2022/01/20 00:38:37;;;;;;;0.25;0.25;;;;;;;5.03;92.18;100699.47;4953667;28;20081;-72
2022/01/20 00:41:03;;;;;;;10.80;3.03;;;;;;;5.04;93.31;100698.34;4959946;28;20062;-72
2022/01/20 00:43:29;;;;;;;11.50;0.77;;;;;;;5.09;92.58;100687.53;4964246;28;20046;-73
2022/01/20 00:45:54;;;;;;;0.47;0.22;;;;;;;5.02;93.54;100685.31;4954399;28;20035;-72
2022/01/20 00:48:21;;;;;;;4.90;0.60;;;;;;;5.23;92.31;100688.91;4953258;29;20146;-72
2022/01/20 00:50:46;;;;;;;1.77;0.63;;;;;;;5.31;92.80;100677.41;4952603;28;20098;-72
2022/01/20 00:53:12;;;;;;;6.65;0.45;;;;;;;5.17;93.26;100671.47;4952720;28;20599;-72
2022/01/20 00:55:39;;;;;;;2.50;0.30;;;;;;;5.35;93.47;100678.34;4969579;28;20037;-72
2022/01/20 00:58:06;;;;;;;2.28;0.57;;;;;;;5.41;92.36;100678.97;4958785;28;20505;-73
2022/01/20 01:00:33;;;;;;;0.30;0.30;;;;;;;5.42;92.92;100677.84;4952747;29;20038;-73
2022/01/20 01:02:59;;;;;;;4.88;0.43;;;;;;;5.18;94.38;100691.75;4943851;28;20050;-73
2022/01/20 01:05:26;;;;;;;1.70;0.50;;;;;;;5.33;92.74;100683.22;4962004;28;20035;-73
2022/01/20 01:07:54;;;;;;;2.10;1.30;;;;;;;5.37;93.32;100686.03;4952002;28;20500;-73
2022/01/20 01:10:26;;;;;;;0.93;0.43;;;;;;;5.25;94.21;100686.69;4959322;28;20113;-73
2022/01/20 01:12:58;;;;;;;9.30;0.50;;;;;;;5.26;94.00;100676.81;4953096;29;20042;-73
2022/01/20 01:15:32;;;;;;;0.30;0.13;;;;;;;5.35;92.86;100678.34;4952177;28;20035;-73
2022/01/20 01:23:26;;;;;;;0.52;0.52;;;;;;;5.56;92.60;100685.66;4940025;28;20043;-72
2022/01/20 01:25:52;;;;;;;1.67;0.22;;;;;;;5.52;92.61;100677.50;4945869;28;20477;-72
2022/01/20 01:28:20;;;;;;;3.78;0.90;;;;;;;5.53;93.32;100681.75;4957841;28;20114;-72
2022/01/20 01:33:33;;;;;;;1.75;0.57;;;;;;;5.34;95.80;100694.69;4951873;28;20043;-71
2022/01/20 01:36:02;;;;;;;0.17;0.17;;;;;;;5.24;96.43;100695.81;4937255;29;20118;-71
2022/01/20 01:38:36;;;;;;;0.80;0.38;;;;;;;5.14;98.90;100696.16;4953232;28;20106;-72
2022/01/20 01:41:10;;;;;;;5.82;0.77;;;;;;;5.14;99.13;100695.34;4951818;29;20093;-71
2022/01/20 01:43:42;;;;;;;2.72;0.25;;;;;;;5.16;100.00;100696.63;4952246;29;20050;-72
2022/01/20 01:46:08;;;;;;;;;;;;;;;5.01;100.00;100675.78;4954188;28;20094;-72
2022/01/20 01:48:36;;;;;;;0.13;0.13;;;;;;;4.97;100.00;100698.84;4952209;28;19911;-72
2022/01/20 01:51:02;;;;;;;0.38;0.25;;;;;;;5.02;100.00;100682.66;4947093;28;20031;-72
2022/01/20 01:53:29;;;;;;;0.43;0.30;;;;;;;5.08;100.00;100697.41;4928973;29;20089;-72
2022/01/20 01:55:55;;;;;;;0.20;0.20;;;;;;;5.13;100.00;100710.56;4951538;29;20035;-71
2022/01/20 01:58:21;;;;;;;0.30;0.22;;;;;;;4.99;100.00;100703.84;4949704;29;20493;-71
2022/01/20 02:01:03;;;;;;;6.05;0.52;;;;;;;5.01;100.00;100694.44;4947507;28;20403;-72
2022/01/20 02:03:30;;;;;;;0.93;0.45;;;;;;;5.09;100.00;100706.97;4951792;29;20027;-71
2022/01/20 02:20:01;;;;;;;9.27;0.55;;;;;;;4.81;100.00;100697.75;4951005;29;20118;-71
2022/01/20 02:22:36;;;;;;;0.30;0.30;;;;;;;4.80;100.00;100693.50;4950476;28;20177;-71
2022/01/20 02:25:24;;;;;;;0.20;0.20;;;;;;;4.81;100.00;100697.75;4951353;29;20508;-71
2022/01/20 02:27:50;;;;;;;3.80;0.30;;;;;;;4.79;100.00;100699.94;4952407;28;20035;-71
2022/01/20 02:30:17;;;;;;;0.80;0.32;;;;;;;4.90;100.00;100692.41;4964919;28;20080;-71
2022/01/20 02:32:52;;;;;;;0.20;0.20;;;;;;;4.90;100.00;100703.06;4950443;28;20480;-71
2022/01/20 02:35:17;;;;;;;0.25;0.10;;;;;;;4.96;100.00;100678.59;4951247;29;20035;-72
2022/01/20 02:37:46;;;;;;;0.55;0.55;;;;;;;4.90;100.00;100685.19;4951426;29;20186;-71
2022/01/20 02:44:48;;;;;;;0.90;0.35;;;;;;;4.69;100.00;100678.91;4950595;28;20039;-71
2022/01/20 02:46:05;;;;;;;0.30;0.30;;;;;;;4.84;99.12;100691.00;4951142;29;20511;-71
2022/01/20 02:48:30;;;;;;;0.17;0.17;;;;;;;4.79;98.83;100683.94;4950710;29;20031;-71
2022/01/20 02:50:57;;;;;;;0.52;0.52;;;;;;;4.69;99.14;100699.47;4944469;28;20113;-71
2022/01/20 02:53:23;;;;;;;1.13;0.38;;;;;;;4.81;98.33;100707.63;4950541;29;20047;-71
2022/01/20 02:55:48;;;;;;;10.95;0.57;;;;;;;4.70;97.91;100706.38;4951345;29;20082;-73
2022/01/20 02:58:13;;;;;;;1.98;0.55;;;;;;;4.77;97.93;100696.81;4951887;29;20125;-72
2022/01/20 03:00:39;;;;;;;2.25;0.32;;;;;;;4.83;97.43;100690.22;4951643;28;20098;-72
2022/01/20 03:03:05;;;;;;;0.20;0.20;;;;;;;4.75;97.45;100688.34;4952959;28;20501;-72
2022/01/20 03:05:31;;;;;;;1.63;0.32;;;;;;;4.72;97.50;100683.66;4951344;29;20066;-71
2022/01/20 03:08:01;;;;;;;0.20;0.20;;;;;;;4.78;97.26;100681.59;4950900;29;20035;-71
2022/01/20 03:10:28;;;;;;;0.30;0.30;;;;;;;4.76;96.57;100681.91;4950224;28;20035;-71
2022/01/20 03:12:56;;;;;;;0.10;0.10;;;;;;;4.79;94.89;100691.94;4950975;28;20035;-71
2022/01/20 03:15:23;;;;;;;0.17;0.17;;;;;;;4.65;95.72;100704.66;4950746;29;20038;-72
2022/01/20 03:17:48;;;;;;;0.30;0.30;;;;;;;4.60;96.74;100710.16;4950570;29;20031;-71
2022/01/20 03:20:14;;;;;;;0.30;0.30;;;;;;;4.74;95.77;100707.31;4948677;29;20039;-71
2022/01/20 03:22:39;;;;;;;2.22;0.63;;;;;;;4.57;95.52;100703.56;4951754;28;20043;-72
2022/01/20 03:25:05;;;;;;;1.35;0.32;;;;;;;4.62;95.76;100709.81;4950077;29;20078;-72
2022/01/20 03:27:32;;;;;;;2.92;0.47;;;;;;;4.56;95.76;100719.88;4948542;29;20031;-71
2022/01/20 03:29:58;;;;;;;1.20;0.45;;;;;;;4.63;95.47;100714.84;4961605;28;20389;-71
2022/01/20 03:32:23;;;;;;;0.20;0.20;;;;;;;4.62;94.01;100726.63;4951090;29;20083;-72
2022/01/20 03:34:49;;;;;;;0.75;0.47;;;;;;;4.49;93.11;100724.88;4950848;29;20035;-72
2022/01/20 03:37:15;;;;;;;0.95;0.95;;;;;;;4.48;92.52;100737.44;4946067;29;20110;-71
2022/01/20 03:39:51;;;;;;;0.20;0.20;;;;;;;4.44;93.01;100739.13;4954987;28;20170;-71
2022/01/20 03:42:16;;;;;;;0.60;0.30;;;;;;;4.38;91.94;100742.25;4953033;28;20551;-72
2022/01/20 03:44:41;;;;;;;0.38;0.28;;;;;;;4.38;91.69;100752.91;4953463;29;20444;-71
2022/01/20 03:47:08;;;;;;;0.30;0.30;;;;;;;4.38;91.54;100752.91;4950437;28;20031;-71
2022/01/20 03:49:50;;;;;;;0.50;0.20;;;;;;;4.39;90.65;100744.59;4952052;29;20416;-71
2022/01/20 03:52:16;;;;;;;5.85;1.27;;;;;;;4.35;88.53;100742.88;4964835;28;20031;-72
2022/01/20 03:54:42;;;;;;;0.32;0.25;;;;;;;4.26;87.54;100745.53;4954456;29;20030;-71
2022/01/20 03:57:43;;;;;;;0.25;0.20;;;;;;;4.25;87.40;100753.84;4951516;28;20058;-71
2022/01/20 04:00:21;;;;;;;0.20;0.20;;;;;;;4.28;87.21;100769.19;4941206;28;20035;-71
2022/01/20 04:02:58;;;;;;;6.78;0.30;;;;;;;4.40;86.36;100777.38;4948063;29;20061;-71
2022/01/20 04:05:58;;;;;;;6.25;0.38;;;;;;;4.29;86.96;100766.25;4949141;29;20050;-71
2022/01/20 04:08:33;;;;;;;0.38;0.30;;;;;;;4.37;86.49;100762.03;4934332;29;20139;-72
2022/01/20 04:11:00;;;;;;;4.85;0.30;;;;;;;4.28;86.83;100772.66;4950934;29;20067;-71
2022/01/20 04:13:30;;;;;;;0.10;0.10;;;;;;;4.38;86.79;100776.91;4948506;28;20036;-71
2022/01/20 04:16:02;;;;;;;4.38;0.43;;;;;;;4.34;85.89;100791.94;4952835;29;20036;-71
2022/01/20 04:18:29;;;;;;;0.38;0.38;;;;;;;4.21;85.22;100790.19;4954765;28;20492;-71
2022/01/20 04:20:55;;;;;;;0.30;0.30;;;;;;;4.12;84.05;100808.03;4950908;29;20176;-71
2022/01/20 04:23:21;;;;;;;0.50;0.50;;;;;;;4.02;85.35;100819.75;4951302;29;20395;-72
2022/01/20 04:25:47;;;;;;;0.10;0.10;;;;;;;4.03;83.40;100807.19;4953254;29;20023;-71
2022/01/20 04:28:12;;;;;;;0.38;0.20;;;;;;;4.00;83.52;100802.50;4957689;28;20041;-71
2022/01/20 04:30:38;;;;;;;0.30;0.20;;;;;;;3.96;83.67;100799.66;4955680;28;20035;-71
2022/01/20 04:33:04;;;;;;;0.10;0.10;;;;;;;3.89;83.01;100801.19;4945751;28;20497;-71
2022/01/20 04:38:06;;;;;;;0.30;0.30;;;;;;;3.95;83.14;100815.94;5082542;23;20094;-72
2022/01/20 04:40:40;;;;;;;0.10;0.10;;;;;;;3.92;83.52;100825.34;4959287;28;20031;-71
2022/01/20 04:43:06;;;;;;;0.13;0.13;;;;;;;3.86;83.21;100807.91;4958561;28;20162;-72
2022/01/20 04:45:37;;;;;;;0.85;0.20;;;;;;;3.82;83.22;100824.78;4960045;28;20146;-72
2022/01/20 04:58:50;;;;;;;0.30;0.20;;;;;;;3.76;83.37;100834.00;4971697;28;20031;-71
2022/01/20 05:01:16;;;;;;;0.20;0.20;;;;;;;3.61;84.81;100840.50;4965057;28;20771;-72
2022/01/20 05:03:45;;;;;;;3.20;0.73;;;;;;;3.80;84.65;100849.06;4971756;28;20049;-71
2022/01/20 05:06:27;;;;;;;0.25;0.25;;;;;;;3.73;84.65;100847.94;4974166;28;20100;-72
2022/01/20 05:08:52;;;;;;;0.73;0.47;;;;;;;3.68;86.17;100844.31;4988128;28;20535;-72
2022/01/20 05:11:19;;;;;;;0.20;0.20;;;;;;;3.68;85.58;100848.84;4964833;28;20039;-72
2022/01/20 05:13:44;;;;;;;0.38;0.38;;;;;;;3.66;85.53;100859.78;4961119;28;20038;-72
2022/01/20 05:16:10;;;;;;;0.30;0.15;;;;;;;3.72;85.39;100867.66;4970277;28;20039;-72
2022/01/20 05:18:36;;;;;;;1.08;0.40;;;;;;;3.76;84.83;100881.91;4971759;28;20026;-72
2022/01/20 05:21:03;;;;;;;2.17;0.25;;;;;;;3.73;84.58;100878.00;4986663;28;20390;-72
2022/01/20 05:23:31;;;;;;;0.13;0.13;;;;;;;3.60;85.22;100886.84;4975128;28;20034;-71
2022/01/20 05:25:58;;;;;;;2.00;1.13;;;;;;;3.60;85.59;100876.22;4971298;28;20041;-72
2022/01/20 05:28:28;;;;;;;0.20;0.20;;;;;;;3.64;85.58;100883.25;4966888;28;20491;-72
2022/01/20 05:30:53;;;;;;;0.30;0.30;;;;;;;3.70;84.74;100886.59;4989085;28;20542;-71
2022/01/20 05:33:28;;;;;;;4.28;0.98;;;;;;;3.75;84.19;100896.34;4956095;28;20427;-72
2022/01/20 05:35:54;;;;;;;6.13;0.38;;;;;;;3.56;85.16;100899.97;4964697;28;20041;-71
2022/01/20 05:38:19;;;;;;;0.10;0.10;;;;;;;3.61;83.65;100893.75;4964919;28;20106;-71
2022/01/20 05:40:47;;;;;;;0.20;0.20;;;;;;;3.52;84.39;100896.31;4970350;28;20433;-71
2022/01/20 05:43:13;;;;;;;2.08;0.43;;;;;;;3.60;83.32;100900.94;4969965;28;20065;-71
2022/01/20 05:45:42;;;;;;;0.10;0.10;;;;;;;3.67;81.94;100911.97;4986302;28;20035;-71
2022/01/20 05:48:14;;;;;;;0.93;0.60;;;;;;;3.65;82.43;100919.47;4969270;28;20387;-71
2022/01/20 05:51:02;;;;;;;0.43;0.35;;;;;;;3.61;82.44;100928.34;4952967;28;20046;-71
2022/01/20 05:53:29;;;;;;;0.57;0.28;;;;;;;3.51;82.65;100936.56;4945173;28;20034;-71
2022/01/20 05:55:55;;;;;;;3.20;0.82;;;;;;;3.66;81.68;100920.22;4972211;28;20038;-71
2022/01/20 05:58:21;;;;;;;0.68;0.40;;;;;;;3.68;80.20;100928.69;4969658;28;20068;-71
2022/01/20 06:00:48;;;;;;;4.80;1.17;;;;;;;3.65;80.57;100935.44;4974786;28;20035;-71
2022/01/20 06:05:58;;;;;;;1.48;1.38;;;;;;;3.64;80.09;100912.56;4963297;28;20034;-71
2022/01/20 06:08:26;;;;;;;4.22;0.45;;;;;;;3.61;80.06;100902.53;4967373;28;20754;-71
2022/01/20 06:10:51;;;;;;;2.95;0.63;;;;;;;3.57;79.72;100912.19;4954376;28;20039;-70
2022/01/20 06:13:22;;;;;;;1.02;0.43;;;;;;;3.62;79.33;100906.75;4977997;28;20038;-71
2022/01/20 06:15:48;;;;;;;0.38;0.38;;;;;;;3.48;79.67;100911.31;4968822;28;20291;-71
2022/01/20 06:18:17;;;;;;;0.20;0.20;;;;;;;3.66;78.72;100914.91;4964123;28;20109;-71
2022/01/20 06:20:49;;;;;;;0.35;0.35;;;;;;;3.64;78.96;100923.19;4967360;28;20158;-71
2022/01/20 06:23:16;;;;;;;0.30;0.13;;;;;;;3.64;78.53;100936.50;4969515;28;20462;-70
2022/01/20 06:25:42;;;;;;;5.38;0.88;;;;;;;3.56;79.12;100921.25;4970768;28;20060;-71
2022/01/20 06:28:11;;;;;;;0.98;0.45;;;;;;;3.55;78.76;100935.66;4961521;28;20533;-70
2022/01/20 06:30:36;;;;;;;0.50;0.28;;;;;;;3.51;79.00;100939.22;4970418;28;20639;-70
2022/01/20 06:33:03;;;;;;;8.57;0.52;;;;;;;3.57;79.10;100943.34;4969577;28;20038;-71
2022/01/20 06:35:36;;;;;;;0.50;0.50;;;;;;;3.53;79.25;100951.16;4976985;28;20118;-71
2022/01/20 06:38:02;;;;;;;1.05;0.70;;;;;;;3.52;78.85;100952.22;4967218;28;20109;-72
2022/01/20 06:40:30;;;;;;;1.20;0.55;;;;;;;3.61;77.81;100945.13;4958923;28;20027;-72
2022/01/20 06:42:55;;;;;;;2.05;0.35;;;;;;;3.61;78.08;100963.75;4978274;28;20027;-72
2022/01/20 06:45:22;;;;;;;0.20;0.20;;;;;;;3.60;77.87;100967.47;4968270;28;20095;-72
2022/01/20 06:47:52;;;;;;;1.40;1.37;;;;;;;3.41;79.06;100974.03;4969423;28;20459;-71
2022/01/20 06:50:17;;;;;;;2.55;0.85;;;;;;;3.50;78.71;100977.59;4961593;28;20065;-72
2022/01/20 06:52:46;;;;;;;3.22;0.50;;;;;;;3.57;78.57;100978.75;4985100;28;20387;-71
2022/01/20 06:55:15;;;;;;;0.30;0.30;;;;;;;3.55;78.66;100980.91;4982319;28;20154;-72
2022/01/20 06:57:42;;;;;;;0.20;0.20;;;;;;;3.58;78.80;100977.66;4971513;28;20031;-72
2022/01/20 07:00:10;;;;;;;0.30;0.30;;;;;;;3.60;78.36;100986.13;4981989;28;20534;-72
2022/01/20 07:02:36;;;;;;;0.80;0.77;;;;;;;3.48;79.24;100993.81;4972939;28;20070;-72
2022/01/20 07:05:03;;;;;;;0.20;0.20;;;;;;;3.50;79.01;100994.31;4964337;28;20118;-72
2022/01/20 07:07:31;;;;;;;1.23;0.55;;;;;;;3.48;79.10;101003.72;4976999;28;20034;-72
2022/01/20 07:10:04;;;;;;;0.20;0.20;;;;;;;3.50;78.32;100994.31;4963867;28;20030;-72
2022/01/20 07:12:41;;;;;;;3.83;0.77;;;;;;;3.48;78.02;101001.03;4975051;28;20394;-72
2022/01/20 07:15:07;;;;;;;2.55;0.60;;;;;;;3.62;77.16;100999.13;4984978;28;20034;-71
2022/01/20 07:17:33;;;;;;;0.47;0.32;;;;;;;3.47;77.88;101002.13;4972702;28;20030;-72
2022/01/20 07:19:59;;;;;;;0.85;0.68;;;;;;;3.51;78.08;101003.09;4970494;28;20034;-71
2022/01/20 07:22:24;;;;;;;6.88;1.05;;;;;;;3.58;77.35;100992.84;4969956;28;20035;-72
2022/01/20 07:24:56;;;;;;;;;;;;;;;3.45;77.83;100990.97;4971208;28;20659;-71
2022/01/20 07:27:41;;;;;;;0.55;0.55;;;;;;;3.52;77.47;100999.38;4976845;28;19924;-71
2022/01/20 07:30:10;;;;;;;0.30;0.30;;;;;;;3.52;77.19;101015.34;4985347;28;20034;-71
2022/01/20 07:32:36;;;;;;;0.10;0.10;;;;;;;3.51;77.10;101022.53;4971713;28;20038;-72
2022/01/20 07:35:02;;;;;;;0.30;0.30;;;;;;;3.53;77.73;101028.34;4962172;28;20046;-71
2022/01/20 07:37:27;;;;;;;6.70;0.85;;;;;;;3.61;77.15;101038.28;4971733;28;20250;-71
2022/01/20 07:39:53;;;;;;;1.00;0.32;;;;;;;3.55;77.81;101044.00;4969891;28;20035;-71
2022/01/20 07:42:18;;;;;;;1.17;1.10;;;;;;;3.56;77.77;101051.69;4967750;28;20035;-71
2022/01/20 07:45:03;;;;;;;5.38;0.38;;;;;;;3.51;77.86;101054.47;4972786;28;20558;-71
2022/01/20 07:48:01;;;;;;;0.73;0.52;;;;;;;3.44;78.29;101048.75;4950281;28;20069;-70
2022/01/20 07:50:27;;;;;;;0.28;0.28;;;;;;;3.60;77.38;101055.34;4993534;28;20148;-71
2022/01/20 07:52:53;;;;;;;0.65;0.40;;;;;;;3.70;77.18;101050.91;4969306;28;20233;-71
2022/01/20 07:55:18;;;;;;;2.55;0.43;;;;;;;3.72;77.45;101052.16;4969040;28;20038;-71
2022/01/20 07:57:44;;;;;;;1.02;0.20;;;;;;;3.79;76.84;101057.09;4963439;28;20039;-71
2022/01/20 08:00:10;;;;;;;0.55;0.25;;;;;;;3.79;76.80;101060.56;4971976;28;20121;-71
2022/01/20 08:02:44;;;;;;;0.25;0.25;;;;;;;3.68;77.39;101069.81;4971977;28;20515;-70
2022/01/20 08:05:17;;;;;;;0.68;0.52;;;;;;;3.70;77.73;101064.22;4988687;28;20133;-71
2022/01/20 08:07:43;;;;;;;0.20;0.20;;;;;;;3.73;77.50;101074.25;4986170;28;20506;-71
2022/01/20 08:10:11;;;;;;;1.40;0.43;;;;;;;3.75;76.83;101080.06;4979624;28;20043;-71
2022/01/20 08:12:37;;;;;;;2.38;0.30;;;;;;;3.80;76.63;101064.78;4963329;28;20049;-71
2022/01/20 08:15:09;;;;;;;0.17;0.17;;;;;;;3.72;77.43;101080.69;4968615;28;20027;-71
2022/01/20 08:17:55;;;;;;;1.95;0.40;;;;;;;3.82;76.75;101062.59;4964284;28;20046;-71
2022/01/20 08:20:21;;;;;;;0.30;0.30;;;;;;;3.89;77.11;101078.19;4972651;28;20482;-71
2022/01/20 08:22:52;;;;;;;0.45;0.45;;;;;;;3.92;76.81;101081.03;4969765;28;20503;-71
2022/01/20 08:25:20;;;;;;;5.57;0.82;;;;;;;3.89;77.42;101083.50;4970462;28;20109;-71
2022/01/20 08:27:47;;;;;;;0.98;0.40;;;;;;;3.86;77.43;101086.75;4983134;28;20472;-71
2022/01/20 08:30:18;;;;;;;1.15;0.57;;;;;;;3.92;77.92;101098.88;4970242;28;20062;-71
2022/01/20 08:32:44;;;;;;;1.33;0.35;;;;;;;3.96;77.60;101078.56;4970445;28;20038;-71
2022/01/20 08:35:36;;;;;;;0.40;0.38;;;;;;;3.94;77.60;101078.84;4957135;28;20039;-71
2022/01/20 08:38:06;;;;;;;1.70;0.38;;;;;;;3.90;77.05;101085.88;4978032;28;20034;-71
2022/01/20 08:40:34;;;;;;;0.60;0.50;;;;;;;3.93;77.63;101073.84;4961417;28;20043;-71
2022/01/20 08:43:00;;;;;;;0.40;0.40;;;;;;;3.97;77.42;101067.59;4969043;28;20041;-71
2022/01/20 08:45:30;;;;;;;0.25;0.25;;;;;;;3.98;77.17;101065.72;4983439;28;20033;-71
2022/01/20 08:47:57;;;;;;;0.35;0.22;;;;;;;3.88;78.25;101068.59;4993259;28;20113;-71
2022/01/20 08:50:30;;;;;;;0.10;0.10;;;;;;;4.13;77.30;101060.03;4983970;28;20038;-72
2022/01/20 08:52:56;;;;;;;5.55;0.30;;;;;;;4.20;76.60;101068.44;4969531;28;20400;-71
2022/01/20 08:55:23;;;;;;;4.53;0.30;;;;;;;4.14;77.26;101067.72;4973482;28;20026;-72
2022/01/20 08:57:54;;;;;;;1.45;0.50;;;;;;;4.28;77.48;101067.69;4985645;28;20038;-71
2022/01/20 09:00:21;;;;;;;0.25;0.20;;;;;;;4.25;78.12;101074.44;4959076;28;20050;-72
2022/01/20 09:03:07;;;;;;;1.33;0.35;;;;;;;4.28;77.93;101070.34;4969569;28;20050;-72
2022/01/20 09:05:34;;;;;;;0.15;0.15;;;;;;;4.43;77.41;101086.00;4970381;28;20041;-72
2022/01/20 09:08:25;;;;;;;1.65;0.40;;;;;;;4.54;76.84;101080.13;4978585;28;20657;-71
2022/01/20 09:10:56;;;;;;;2.77;0.50;;;;;;;4.54;76.64;101085.47;4985956;28;20033;-72
2022/01/20 09:16:10;;;;;;;0.10;0.10;;;;;;;4.45;77.49;101086.50;4961110;28;21094;-71
2022/01/20 09:18:44;;;;;;;2.28;0.55;;;;;;;4.59;77.17;101087.19;4971707;28;20411;-71
2022/01/20 09:21:11;;;;;;;5.22;0.40;;;;;;;4.66;76.73;101079.59;4986480;28;20069;-71
2022/01/20 09:23:38;;;;;;;3.47;0.45;;;;;;;4.72;76.37;101083.69;4966755;28;20407;-72
2022/01/20 09:26:05;;;;;;;0.43;0.30;;;;;;;4.73;77.54;101090.59;4962398;28;20035;-71
2022/01/20 09:28:35;;;;;;;2.97;0.38;;;;;;;4.91;75.69;101086.16;4956576;28;20035;-72
2022/01/20 09:31:02;;;;;;;0.10;0.10;;;;;;;5.11;75.79;101101.66;4957867;28;20050;-71
2022/01/20 09:33:29;;;;;;;6.38;0.38;;;;;;;5.31;73.98;101096.56;4968495;28;20061;-71
2022/01/20 09:35:57;;;;;;;1.02;0.28;;;;;;;5.43;73.93;101117.31;4976253;28;20169;-71
2022/01/20 09:38:24;;;;;;;1.88;0.40;;;;;;;5.41;73.94;101104.28;4969815;28;20035;-71
2022/01/20 09:40:50;;;;;;;0.93;0.47;;;;;;;5.37;74.26;101106.00;4964815;28;20089;-71
2022/01/20 09:43:16;;;;;;;0.45;0.20;;;;;;;5.36;72.80;101098.31;4968933;28;20035;-71
2022/01/20 09:45:46;;;;;;;0.13;0.13;;;;;;;5.33;72.35;101097.03;4962896;28;20033;-71
2022/01/20 09:48:12;;;;;;;1.55;0.38;;;;;;;5.28;72.89;101121.16;4983652;28;20085;-71
2022/01/20 09:50:56;;;;;;;1.38;0.30;;;;;;;5.17;72.81;101114.53;4953013;28;20507;-71
2022/01/20 09:53:40;;;;;;;5.90;0.93;;;;;;;5.12;72.25;101113.88;4958363;28;20097;-71
2022/01/20 09:56:22;;;;;;;10.25;0.40;;;;;;;5.06;72.03;101128.44;4963721;28;20061;-71
2022/01/20 09:58:48;;;;;;;0.22;0.22;;;;;;;4.99;72.52;101120.91;4966292;28;20035;-71
2022/01/20 10:01:43;;;;;;;0.32;0.20;;;;;;;4.87;73.81;101131.34;5051330;28;20440;-71
2022/01/20 10:04:27;;;;;;;1.10;0.15;;;;;;;4.91;73.92;101140.31;5069588;28;20036;-72
2022/01/20 10:06:53;;;;;;;0.20;0.20;;;;;;;4.91;75.37;101129.63;5052295;28;20043;-71
2022/01/20 10:09:27;;;;;;;0.50;0.35;;;;;;;4.94;76.21;101131.69;5054885;28;20020;-71
2022/01/20 10:12:03;;;;;;;3.08;0.68;;;;;;;5.01;75.60;101140.06;5056123;28;20078;-71
2022/01/20 10:14:56;;;;;;;0.10;0.10;;;;;;;5.10;75.06;101148.09;5051807;28;20067;-71
2022/01/20 10:17:41;;;;;;;0.57;0.15;;;;;;;5.10;75.63;101137.41;5058358;28;20501;-71
2022/01/20 10:20:08;;;;;;;3.40;0.40;;;;;;;5.18;75.66;101126.81;5049718;28;20035;-72
2022/01/20 10:22:55;;;;;;;0.17;0.17;;;;;;;5.26;76.51;101142.09;5052352;28;20029;-71
2022/01/20 10:25:41;;;;;;;0.32;0.22;;;;;;;5.34;75.74;101148.56;5053098;28;20047;-72
2022/01/20 10:28:14;;;;;;;0.63;0.30;;;;;;;5.41;75.37;101157.69;5057474;28;20127;-72
2022/01/20 10:30:41;;;;;;;0.20;0.20;;;;;;;5.49;73.95;101156.94;5059797;28;20025;-72
2022/01/20 10:33:06;;;;;;;0.20;0.20;;;;;;;5.24;80.56;101170.97;5045653;28;20033;-71
2022/01/20 10:35:38;;;;;;;0.15;0.10;;;;;;;4.95;83.45;101167.97;5046798;28;20033;-72
2022/01/20 10:38:21;;;;;;;0.10;0.10;;;;;;;4.79;85.06;101172.06;5056975;28;20123;-72
2022/01/20 10:40:59;;;;;;;0.45;0.45;;;;;;;4.70;86.28;101168.56;5041792;22;20402;-72
2022/01/20 10:43:35;;;;;;;0.50;0.30;;;;;;;4.75;86.46;101176.44;5025118;28;20493;-72
2022/01/20 10:46:16;;;;;;;0.65;0.40;;;;;;;4.77;87.71;101157.44;5033678;28;20032;-72
2022/01/20 10:48:43;;;;;;;1.00;0.57;;;;;;;4.77;87.26;101144.91;5015902;28;20030;-72
2022/01/20 10:51:17;;;;;;;0.20;0.20;;;;;;;4.74;88.40;101150.06;5016282;28;20124;-71
2022/01/20 10:53:55;;;;;;;0.13;0.13;;;;;;;4.74;84.62;101150.88;4996154;28;20039;-72
2022/01/20 10:56:21;;;;;;;0.63;0.30;;;;;;;4.69;82.18;101147.50;5011846;28;20116;-72
2022/01/20 10:58:46;;;;;;;0.52;0.32;;;;;;;4.68;81.20;101149.41;5017863;28;20077;-72
2022/01/20 11:01:17;;;;;;;0.10;0.10;;;;;;;4.64;80.19;101159.09;4998610;28;20025;-71
2022/01/20 11:03:43;;;;;;;0.35;0.35;;;;;;;4.61;79.33;101150.91;4993552;28;20038;-71
2022/01/20 11:06:10;;;;;;;0.52;0.30;;;;;;;4.63;79.60;101159.41;5000735;28;20030;-71
2022/01/20 11:08:44;;;;;;;0.57;0.40;;;;;;;4.70;80.79;101152.56;5001010;28;20034;-72
2022/01/20 11:11:14;;;;;;;0.10;0.10;;;;;;;4.82;79.62;101150.13;5005118;28;20035;-72
2022/01/20 11:13:58;;;;;;;0.10;0.10;;;;;;;4.89;79.57;101150.50;4986700;28;20049;-72
2022/01/20 11:16:23;;;;;;;0.45;0.22;;;;;;;4.83;79.33;101149.03;4991558;28;20041;-72
2022/01/20 11:18:50;;;;;;;0.10;0.10;;;;;;;4.94;80.03;101144.22;4984023;28;20030;-72
2022/01/20 11:21:26;;;;;;;1.63;0.63;;;;;;;4.99;79.95;101131.56;5003119;28;20725;-72
2022/01/20 11:23:52;;;;;;;0.43;0.28;;;;;;;5.07;81.34;101133.47;5000522;28;20038;-72
2022/01/20 11:26:48;;;;;;;1.65;0.32;;;;;;;5.07;81.67;101144.16;4985248;28;20041;-72
2022/01/20 11:29:42;;;;;;;0.20;0.20;;;;;;;5.13;81.11;101132.25;4984540;28;20117;-72
2022/01/20 11:32:29;;;;;;;1.88;0.20;;;;;;;5.12;81.14;101104.00;4977826;28;20084;-72
2022/01/20 11:35:18;;;;;;;0.20;0.20;;;;;;;5.07;79.74;101106.03;4987660;28;20045;-71
2022/01/20 11:37:56;;;;;;;0.22;0.13;;;;;;;4.98;80.53;101115.84;4980148;28;20108;-71
2022/01/20 11:40:23;;;;;;;1.00;0.50;;;;;;;5.00;80.79;101119.78;4998699;28;20039;-72
2022/01/20 11:43:15;;;;;;;0.47;0.47;;;;;;;5.21;80.03;101104.03;5007353;28;20116;-72
2022/01/20 11:45:49;;;;;;;1.08;0.38;;;;;;;5.34;78.33;101111.94;5003380;28;20053;-72
2022/01/20 11:48:16;;;;;;;0.30;0.30;;;;;;;5.40;77.22;101113.38;4995975;28;20050;-72
2022/01/20 11:50:43;;;;;;;1.30;0.88;;;;;;;5.46;76.18;101120.16;5010529;28;20028;-72
2022/01/20 11:53:17;;;;;;;2.50;0.30;;;;;;;5.38;76.07;101126.25;5011890;28;20058;-72
2022/01/20 11:55:50;;;;;;;0.35;0.35;;;;;;;5.50;74.74;101145.16;5012368;28;20490;-72
2022/01/20 11:58:16;;;;;;;0.20;0.20;;;;;;;5.59;73.36;101139.06;5003073;28;20050;-71
2022/01/20 12:00:42;;;;;;;0.40;0.30;;;;;;;5.66;72.79;101137.50;5006155;28;20068;-72
2022/01/20 12:03:14;;;;;;;4.47;0.47;;;;;;;5.68;70.70;101139.88;4998904;28;20062;-72
2022/01/20 12:06:00;;;;;;;0.75;0.20;;;;;;;5.63;72.16;101124.00;5017039;28;20034;-72
2022/01/20 12:08:34;;;;;;;0.43;0.15;;;;;;;5.64;70.10;101130.91;5004840;28;20032;-71
2022/01/20 12:11:08;;;;;;;0.17;0.17;;;;;;;5.65;68.58;101116.47;5004393;28;20034;-71
2022/01/20 12:13:48;;;;;;;0.20;0.20;;;;;;;5.44;70.29;101132.22;5000450;28;20120;-72
2022/01/20 12:16:22;;;;;;;0.70;0.43;;;;;;;5.53;69.07;101128.50;4996833;28;20104;-72
2022/01/20 12:18:53;;;;;;;0.40;0.40;;;;;;;5.53;67.86;101125.81;4999801;28;20052;-72
2022/01/20 12:21:24;;;;;;;0.80;0.30;;;;;;;5.58;67.61;101122.25;5003971;28;20030;-71
2022/01/20 12:23:52;;;;;;;0.50;0.25;;;;;;;5.57;68.34;101125.22;4998498;28;20554;-71
2022/01/20 12:26:17;;;;;;;0.10;0.10;;;;;;;5.50;66.24;101114.97;5000279;28;20053;-71
2022/01/20 12:28:43;;;;;;;0.55;0.43;;;;;;;5.46;67.49;101108.69;5001574;28;20033;-71
2022/01/20 12:31:11;;;;;;;0.57;0.43;;;;;;;5.41;68.25;101100.81;4998526;28;20034;-71
2022/01/20 12:33:41;;;;;;;0.52;0.50;;;;;;;5.47;68.31;101084.38;5000223;28;20034;-71
2022/01/20 12:36:12;;;;;;;2.45;1.05;;;;;;;5.55;68.84;101096.16;5002688;28;20052;-72
2022/01/20 12:38:41;;;;;;;2.90;0.30;;;;;;;5.60;69.65;101090.66;5017228;28;20104;-71
2022/01/20 12:41:17;;;;;;;0.47;0.30;;;;;;;5.51;70.35;101097.88;5003579;28;20119;-71
2022/01/20 12:43:52;;;;;;;0.10;0.10;;;;;;;5.48;66.74;101109.16;4998282;28;20060;-71
2022/01/20 12:46:30;;;;;;;0.20;0.20;;;;;;;5.55;67.28;101106.84;5000164;28;20639;-71
2022/01/20 12:49:17;;;;;;;0.10;0.10;;;;;;;5.41;70.06;101090.94;5001725;28;20406;-72
2022/01/20 12:51:54;;;;;;;4.95;0.47;;;;;;;5.27;70.52;101100.94;5004271;28;20509;-71
2022/01/20 12:54:30;;;;;;;0.10;0.10;;;;;;;5.22;68.99;101076.25;5008302;28;20078;-72
2022/01/20 12:57:03;;;;;;;1.92;0.68;;;;;;;4.89;64.96;101083.00;5017819;28;20800;-71
2022/01/20 12:59:30;;;;;;;0.38;0.38;;;;;;;4.88;64.97;101097.44;4999650;28;20414;-71